Terminal Aerodrome Forecast
Issued by NWS Newport/Morehead City, NC

Home | Current Version | Previous Version | Graphics & Text | Print | Product List | Glossary On
Versions: 1 2 3 4 5 6 7 8 9 10 11 12 13 14 15
000
FTUS42 KMHX 181327 AAA
TAFEWN
TAF AMD
KEWN 181327Z 1813/1912 VRB03KT 6SM -SHRA BKN035
      TEMPO 1813/1815 2SM RA BR BKN015
     FM181700 20005KT P6SM VCSH BKN050
     FM182200 18006KT P6SM BKN070=

USA.gov is the U.S. government's official web portal to all federal, state and local government web resources and services.